sensor_id;sensor_type;location;lat;lon;timestamp;P1;durP1;ratioP1;P2;durP2;ratioP2
46941;SDS011;32676;52.630;4.896;2022-12-13T00:01:51;29.70;;;12.23;;
46941;SDS011;32676;52.630;4.896;2022-12-13T00:04:21;30.70;;;12.40;;
46941;SDS011;32676;52.630;4.896;2022-12-13T00:06:48;25.80;;;12.85;;
46941;SDS011;32676;52.630;4.896;2022-12-13T00:09:18;30.77;;;12.37;;
46941;SDS011;32676;52.630;4.896;2022-12-13T00:11:49;36.40;;;13.50;;
46941;SDS011;32676;52.630;4.896;2022-12-13T00:14:17;34.40;;;14.13;;
46941;SDS011;32676;52.630;4.896;2022-12-13T00:16:44;29.13;;;13.98;;
46941;SDS011;32676;52.630;4.896;2022-12-13T00:19:11;42.47;;;15.63;;
46941;SDS011;32676;52.630;4.896;2022-12-13T00:21:38;34.08;;;14.75;;
46941;SDS011;32676;52.630;4.896;2022-12-13T00:24:05;29.97;;;13.53;;
46941;SDS011;32676;52.630;4.896;2022-12-13T00:26:32;29.03;;;11.83;;
46941;SDS011;32676;52.630;4.896;2022-12-13T00:29:00;31.93;;;14.43;;
46941;SDS011;32676;52.630;4.896;2022-12-13T00:31:28;27.33;;;13.20;;
46941;SDS011;32676;52.630;4.896;2022-12-13T00:33:55;28.60;;;13.53;;
46941;SDS011;32676;52.630;4.896;2022-12-13T00:36:22;34.05;;;14.50;;
46941;SDS011;32676;52.630;4.896;2022-12-13T00:38:48;33.30;;;14.38;;
46941;SDS011;32676;52.630;4.896;2022-12-13T00:41:24;30.90;;;14.30;;
46941;SDS011;32676;52.630;4.896;2022-12-13T00:43:52;35.43;;;15.47;;
46941;SDS011;32676;52.630;4.896;2022-12-13T00:46:20;32.45;;;13.35;;
46941;SDS011;32676;52.630;4.896;2022-12-13T00:48:48;28.30;;;12.98;;
46941;SDS011;32676;52.630;4.896;2022-12-13T00:51:15;30.92;;;11.93;;
46941;SDS011;32676;52.630;4.896;2022-12-13T00:53:41;33.00;;;14.27;;
46941;SDS011;32676;52.630;4.896;2022-12-13T00:56:09;35.22;;;14.60;;
46941;SDS011;32676;52.630;4.896;2022-12-13T00:58:37;35.63;;;13.65;;
46941;SDS011;32676;52.630;4.896;2022-12-13T01:01:04;34.60;;;13.40;;
46941;SDS011;32676;52.630;4.896;2022-12-13T01:03:34;40.63;;;15.53;;
46941;SDS011;32676;52.630;4.896;2022-12-13T01:06:06;30.40;;;13.13;;
46941;SDS011;32676;52.630;4.896;2022-12-13T01:08:34;29.52;;;12.32;;
46941;SDS011;32676;52.630;4.896;2022-12-13T01:11:01;34.30;;;13.00;;
46941;SDS011;32676;52.630;4.896;2022-12-13T01:13:29;27.40;;;10.75;;
46941;SDS011;32676;52.630;4.896;2022-12-13T01:15:55;34.63;;;14.20;;
46941;SDS011;32676;52.630;4.896;2022-12-13T01:18:21;35.05;;;13.63;;
46941;SDS011;32676;52.630;4.896;2022-12-13T01:20:57;32.33;;;13.97;;
46941;SDS011;32676;52.630;4.896;2022-12-13T01:23:26;33.78;;;11.75;;
46941;SDS011;32676;52.630;4.896;2022-12-13T01:25:52;26.20;;;11.82;;
46941;SDS011;32676;52.630;4.896;2022-12-13T01:28:19;32.63;;;13.60;;
46941;SDS011;32676;52.630;4.896;2022-12-13T01:30:52;31.52;;;13.23;;
46941;SDS011;32676;52.630;4.896;2022-12-13T01:33:20;37.03;;;15.63;;
46941;SDS011;32676;52.630;4.896;2022-12-13T01:35:46;30.08;;;11.82;;
46941;SDS011;32676;52.630;4.896;2022-12-13T01:38:14;24.67;;;10.50;;
46941;SDS011;32676;52.630;4.896;2022-12-13T01:40:42;26.37;;;11.70;;
46941;SDS011;32676;52.630;4.896;2022-12-13T01:43:10;27.97;;;12.13;;
46941;SDS011;32676;52.630;4.896;2022-12-13T01:45:37;34.55;;;11.10;;
46941;SDS011;32676;52.630;4.896;2022-12-13T01:48:04;39.42;;;16.00;;
46941;SDS011;32676;52.630;4.896;2022-12-13T01:50:35;30.20;;;14.38;;
46941;SDS011;32676;52.630;4.896;2022-12-13T01:53:04;25.80;;;13.07;;
46941;SDS011;32676;52.630;4.896;2022-12-13T01:55:35;29.03;;;12.90;;
46941;SDS011;32676;52.630;4.896;2022-12-13T01:58:04;29.48;;;11.02;;
46941;SDS011;32676;52.630;4.896;2022-12-13T02:00:31;24.20;;;12.25;;
46941;SDS011;32676;52.630;4.896;2022-12-13T02:03:00;32.25;;;13.15;;
46941;SDS011;32676;52.630;4.896;2022-12-13T02:05:29;30.20;;;13.73;;
46941;SDS011;32676;52.630;4.896;2022-12-13T02:07:59;32.07;;;14.70;;
46941;SDS011;32676;52.630;4.896;2022-12-13T02:10:27;31.55;;;11.48;;
46941;SDS011;32676;52.630;4.896;2022-12-13T02:12:57;29.90;;;11.23;;
46941;SDS011;32676;52.630;4.896;2022-12-13T02:15:23;35.72;;;13.25;;
46941;SDS011;32676;52.630;4.896;2022-12-13T02:18:00;32.20;;;12.32;;
46941;SDS011;32676;52.630;4.896;2022-12-13T02:20:47;29.08;;;12.40;;
46941;SDS011;32676;52.630;4.896;2022-12-13T02:23:45;28.43;;;10.93;;
46941;SDS011;32676;52.630;4.896;2022-12-13T02:29:42;25.38;;;11.80;;
46941;SDS011;32676;52.630;4.896;2022-12-13T02:32:33;33.22;;;12.02;;
46941;SDS011;32676;52.630;4.896;2022-12-13T02:35:06;53.80;;;14.00;;
46941;SDS011;32676;52.630;4.896;2022-12-13T02:37:38;25.67;;;11.40;;
46941;SDS011;32676;52.630;4.896;2022-12-13T02:40:13;28.07;;;12.13;;
46941;SDS011;32676;52.630;4.896;2022-12-13T02:42:47;26.63;;;11.60;;
46941;SDS011;32676;52.630;4.896;2022-12-13T02:45:20;32.67;;;13.23;;
46941;SDS011;32676;52.630;4.896;2022-12-13T02:47:54;37.67;;;13.93;;
46941;SDS011;32676;52.630;4.896;2022-12-13T02:50:25;24.83;;;12.70;;
46941;SDS011;32676;52.630;4.896;2022-12-13T02:52:53;26.20;;;12.30;;
46941;SDS011;32676;52.630;4.896;2022-12-13T02:55:21;23.98;;;11.98;;
46941;SDS011;32676;52.630;4.896;2022-12-13T02:57:51;23.37;;;11.17;;
46941;SDS011;32676;52.630;4.896;2022-12-13T03:00:18;29.95;;;10.68;;
46941;SDS011;32676;52.630;4.896;2022-12-13T03:02:52;26.63;;;9.57;;
46941;SDS011;32676;52.630;4.896;2022-12-13T03:05:29;32.10;;;13.40;;
46941;SDS011;32676;52.630;4.896;2022-12-13T03:08:23;24.77;;;10.05;;
46941;SDS011;32676;52.630;4.896;2022-12-13T03:10:54;30.15;;;12.65;;
46941;SDS011;32676;52.630;4.896;2022-12-13T03:16:04;27.08;;;11.27;;
46941;SDS011;32676;52.630;4.896;2022-12-13T03:18:35;25.77;;;9.87;;
46941;SDS011;32676;52.630;4.896;2022-12-13T03:21:05;27.87;;;10.73;;
46941;SDS011;32676;52.630;4.896;2022-12-13T03:23:33;29.10;;;10.82;;
46941;SDS011;32676;52.630;4.896;2022-12-13T03:26:02;24.65;;;9.95;;
46941;SDS011;32676;52.630;4.896;2022-12-13T03:28:31;26.85;;;11.32;;
46941;SDS011;32676;52.630;4.896;2022-12-13T03:30:58;25.80;;;10.13;;
46941;SDS011;32676;52.630;4.896;2022-12-13T03:33:24;25.52;;;11.35;;
46941;SDS011;32676;52.630;4.896;2022-12-13T03:35:52;24.25;;;10.02;;
46941;SDS011;32676;52.630;4.896;2022-12-13T03:38:19;27.30;;;9.93;;
46941;SDS011;32676;52.630;4.896;2022-12-13T03:40:45;28.05;;;11.07;;
46941;SDS011;32676;52.630;4.896;2022-12-13T03:43:12;24.73;;;9.23;;
46941;SDS011;32676;52.630;4.896;2022-12-13T03:45:39;24.67;;;9.90;;
46941;SDS011;32676;52.630;4.896;2022-12-13T03:48:06;28.57;;;12.63;;
46941;SDS011;32676;52.630;4.896;2022-12-13T03:50:32;25.57;;;10.23;;
46941;SDS011;32676;52.630;4.896;2022-12-13T03:53:00;28.63;;;10.20;;
46941;SDS011;32676;52.630;4.896;2022-12-13T03:55:28;27.42;;;10.02;;
46941;SDS011;32676;52.630;4.896;2022-12-13T03:57:54;27.35;;;11.55;;
46941;SDS011;32676;52.630;4.896;2022-12-13T04:00:21;20.20;;;8.83;;
46941;SDS011;32676;52.630;4.896;2022-12-13T04:02:48;20.08;;;9.80;;
46941;SDS011;32676;52.630;4.896;2022-12-13T04:05:15;22.45;;;10.50;;
46941;SDS011;32676;52.630;4.896;2022-12-13T04:07:41;25.05;;;11.88;;
46941;SDS011;32676;52.630;4.896;2022-12-13T04:10:09;29.27;;;10.80;;
46941;SDS011;32676;52.630;4.896;2022-12-13T04:12:36;21.30;;;9.07;;
46941;SDS011;32676;52.630;4.896;2022-12-13T04:15:28;32.03;;;10.87;;
46941;SDS011;32676;52.630;4.896;2022-12-13T04:17:55;24.05;;;10.73;;
46941;SDS011;32676;52.630;4.896;2022-12-13T04:20:21;21.40;;;10.43;;
46941;SDS011;32676;52.630;4.896;2022-12-13T04:22:47;23.30;;;9.57;;
46941;SDS011;32676;52.630;4.896;2022-12-13T04:25:16;24.15;;;9.52;;
46941;SDS011;32676;52.630;4.896;2022-12-13T04:27:43;26.73;;;11.80;;
46941;SDS011;32676;52.630;4.896;2022-12-13T04:30:10;22.33;;;11.27;;
46941;SDS011;32676;52.630;4.896;2022-12-13T04:32:36;23.30;;;9.77;;
46941;SDS011;32676;52.630;4.896;2022-12-13T04:35:03;22.05;;;10.18;;
46941;SDS011;32676;52.630;4.896;2022-12-13T04:37:30;20.52;;;8.57;;
46941;SDS011;32676;52.630;4.896;2022-12-13T04:39:57;45.13;;;11.23;;
46941;SDS011;32676;52.630;4.896;2022-12-13T04:42:24;19.43;;;9.10;;
46941;SDS011;32676;52.630;4.896;2022-12-13T04:44:51;25.27;;;12.20;;
46941;SDS011;32676;52.630;4.896;2022-12-13T04:47:18;29.37;;;12.43;;
46941;SDS011;32676;52.630;4.896;2022-12-13T04:49:45;31.27;;;13.53;;
46941;SDS011;32676;52.630;4.896;2022-12-13T04:52:12;24.40;;;9.50;;
46941;SDS011;32676;52.630;4.896;2022-12-13T04:54:38;28.23;;;11.23;;
46941;SDS011;32676;52.630;4.896;2022-12-13T04:57:05;23.17;;;10.47;;
46941;SDS011;32676;52.630;4.896;2022-12-13T04:59:34;23.92;;;10.63;;
46941;SDS011;32676;52.630;4.896;2022-12-13T05:02:01;21.73;;;9.77;;
46941;SDS011;32676;52.630;4.896;2022-12-13T05:04:29;27.15;;;10.50;;
46941;SDS011;32676;52.630;4.896;2022-12-13T05:06:56;20.77;;;9.20;;
46941;SDS011;32676;52.630;4.896;2022-12-13T05:09:22;23.83;;;9.90;;
46941;SDS011;32676;52.630;4.896;2022-12-13T05:11:49;27.30;;;11.73;;
46941;SDS011;32676;52.630;4.896;2022-12-13T05:14:15;19.87;;;9.90;;
46941;SDS011;32676;52.630;4.896;2022-12-13T05:16:43;26.17;;;9.47;;
46941;SDS011;32676;52.630;4.896;2022-12-13T05:19:10;22.05;;;9.60;;
46941;SDS011;32676;52.630;4.896;2022-12-13T05:21:36;25.67;;;10.57;;
46941;SDS011;32676;52.630;4.896;2022-12-13T05:24:03;23.03;;;8.83;;
46941;SDS011;32676;52.630;4.896;2022-12-13T05:26:30;39.50;;;11.57;;
46941;SDS011;32676;52.630;4.896;2022-12-13T05:28:57;16.50;;;8.90;;
46941;SDS011;32676;52.630;4.896;2022-12-13T05:31:24;22.92;;;8.93;;
46941;SDS011;32676;52.630;4.896;2022-12-13T05:33:52;29.70;;;10.85;;
46941;SDS011;32676;52.630;4.896;2022-12-13T05:36:19;23.93;;;9.53;;
46941;SDS011;32676;52.630;4.896;2022-12-13T05:38:49;29.15;;;11.77;;
46941;SDS011;32676;52.630;4.896;2022-12-13T05:41:16;19.63;;;9.23;;
46941;SDS011;32676;52.630;4.896;2022-12-13T05:43:44;22.77;;;10.03;;
46941;SDS011;32676;52.630;4.896;2022-12-13T05:46:11;36.13;;;10.87;;
46941;SDS011;32676;52.630;4.896;2022-12-13T05:48:39;21.40;;;9.48;;
46941;SDS011;32676;52.630;4.896;2022-12-13T05:51:08;20.23;;;9.27;;
46941;SDS011;32676;52.630;4.896;2022-12-13T05:53:35;28.73;;;10.88;;
46941;SDS011;32676;52.630;4.896;2022-12-13T05:56:02;20.38;;;9.23;;
46941;SDS011;32676;52.630;4.896;2022-12-13T05:58:29;30.33;;;11.17;;
46941;SDS011;32676;52.630;4.896;2022-12-13T06:01:02;26.93;;;11.30;;
46941;SDS011;32676;52.630;4.896;2022-12-13T06:03:29;23.30;;;10.52;;
46941;SDS011;32676;52.630;4.896;2022-12-13T06:05:59;23.03;;;9.30;;
46941;SDS011;32676;52.630;4.896;2022-12-13T06:08:27;28.60;;;11.93;;
46941;SDS011;32676;52.630;4.896;2022-12-13T06:10:54;31.60;;;10.32;;
46941;SDS011;32676;52.630;4.896;2022-12-13T06:13:21;25.27;;;9.53;;
46941;SDS011;32676;52.630;4.896;2022-12-13T06:15:48;25.95;;;10.15;;
46941;SDS011;32676;52.630;4.896;2022-12-13T06:18:14;22.23;;;9.43;;
46941;SDS011;32676;52.630;4.896;2022-12-13T06:20:41;25.77;;;10.60;;
46941;SDS011;32676;52.630;4.896;2022-12-13T06:23:07;26.48;;;11.60;;
46941;SDS011;32676;52.630;4.896;2022-12-13T06:25:36;23.97;;;10.60;;
46941;SDS011;32676;52.630;4.896;2022-12-13T06:28:02;28.10;;;9.83;;
46941;SDS011;32676;52.630;4.896;2022-12-13T06:30:30;25.93;;;11.03;;
46941;SDS011;32676;52.630;4.896;2022-12-13T06:32:57;24.03;;;12.97;;
46941;SDS011;32676;52.630;4.896;2022-12-13T06:35:23;23.10;;;10.20;;
46941;SDS011;32676;52.630;4.896;2022-12-13T06:37:51;27.73;;;11.48;;
46941;SDS011;32676;52.630;4.896;2022-12-13T06:40:18;28.47;;;10.93;;
46941;SDS011;32676;52.630;4.896;2022-12-13T06:42:46;30.93;;;11.60;;
46941;SDS011;32676;52.630;4.896;2022-12-13T06:45:12;28.00;;;13.03;;
46941;SDS011;32676;52.630;4.896;2022-12-13T06:47:38;31.17;;;14.40;;
46941;SDS011;32676;52.630;4.896;2022-12-13T06:50:05;29.97;;;12.63;;
46941;SDS011;32676;52.630;4.896;2022-12-13T06:52:33;21.03;;;10.00;;
46941;SDS011;32676;52.630;4.896;2022-12-13T06:55:00;31.73;;;13.68;;
46941;SDS011;32676;52.630;4.896;2022-12-13T06:57:26;26.95;;;10.77;;
46941;SDS011;32676;52.630;4.896;2022-12-13T06:59:54;25.40;;;10.07;;
46941;SDS011;32676;52.630;4.896;2022-12-13T07:02:20;27.70;;;11.50;;
46941;SDS011;32676;52.630;4.896;2022-12-13T07:04:47;27.50;;;11.30;;
46941;SDS011;32676;52.630;4.896;2022-12-13T07:07:13;31.70;;;12.20;;
46941;SDS011;32676;52.630;4.896;2022-12-13T07:09:40;36.20;;;12.07;;
46941;SDS011;32676;52.630;4.896;2022-12-13T07:12:06;32.53;;;10.87;;
46941;SDS011;32676;52.630;4.896;2022-12-13T07:14:33;22.30;;;9.83;;
46941;SDS011;32676;52.630;4.896;2022-12-13T07:17:01;29.83;;;12.43;;
46941;SDS011;32676;52.630;4.896;2022-12-13T07:19:27;30.92;;;11.43;;
46941;SDS011;32676;52.630;4.896;2022-12-13T07:21:54;27.87;;;11.33;;
46941;SDS011;32676;52.630;4.896;2022-12-13T07:24:20;27.07;;;11.07;;
46941;SDS011;32676;52.630;4.896;2022-12-13T07:26:47;24.20;;;11.93;;
46941;SDS011;32676;52.630;4.896;2022-12-13T07:29:13;31.30;;;11.50;;
46941;SDS011;32676;52.630;4.896;2022-12-13T07:31:40;27.73;;;12.37;;
46941;SDS011;32676;52.630;4.896;2022-12-13T07:34:07;30.40;;;13.17;;
46941;SDS011;32676;52.630;4.896;2022-12-13T07:36:34;27.50;;;11.20;;
46941;SDS011;32676;52.630;4.896;2022-12-13T07:39:00;26.60;;;12.77;;
46941;SDS011;32676;52.630;4.896;2022-12-13T07:41:27;29.10;;;11.83;;
46941;SDS011;32676;52.630;4.896;2022-12-13T07:43:53;31.67;;;14.00;;
46941;SDS011;32676;52.630;4.896;2022-12-13T07:46:21;26.20;;;12.73;;
46941;SDS011;32676;52.630;4.896;2022-12-13T07:48:48;27.97;;;11.53;;
46941;SDS011;32676;52.630;4.896;2022-12-13T07:51:15;32.87;;;14.60;;
46941;SDS011;32676;52.630;4.896;2022-12-13T07:53:42;22.13;;;11.50;;
46941;SDS011;32676;52.630;4.896;2022-12-13T07:56:09;28.03;;;12.53;;
46941;SDS011;32676;52.630;4.896;2022-12-13T07:58:36;27.03;;;13.33;;
46941;SDS011;32676;52.630;4.896;2022-12-13T08:01:05;23.57;;;11.67;;
46941;SDS011;32676;52.630;4.896;2022-12-13T08:03:33;28.63;;;10.70;;
46941;SDS011;32676;52.630;4.896;2022-12-13T08:06:00;26.03;;;11.73;;
46941;SDS011;32676;52.630;4.896;2022-12-13T08:08:30;27.53;;;12.77;;
46941;SDS011;32676;52.630;4.896;2022-12-13T08:10:59;26.30;;;12.10;;
46941;SDS011;32676;52.630;4.896;2022-12-13T08:13:26;25.83;;;11.03;;
46941;SDS011;32676;52.630;4.896;2022-12-13T08:15:56;26.10;;;11.07;;
46941;SDS011;32676;52.630;4.896;2022-12-13T08:18:23;25.33;;;12.10;;
46941;SDS011;32676;52.630;4.896;2022-12-13T08:20:49;37.33;;;12.93;;
46941;SDS011;32676;52.630;4.896;2022-12-13T08:23:16;19.70;;;9.33;;
46941;SDS011;32676;52.630;4.896;2022-12-13T08:25:43;27.05;;;10.90;;
46941;SDS011;32676;52.630;4.896;2022-12-13T08:28:15;27.17;;;10.77;;
46941;SDS011;32676;52.630;4.896;2022-12-13T08:30:42;22.77;;;11.47;;
46941;SDS011;32676;52.630;4.896;2022-12-13T08:33:09;26.53;;;11.67;;
46941;SDS011;32676;52.630;4.896;2022-12-13T08:35:35;23.53;;;9.63;;
46941;SDS011;32676;52.630;4.896;2022-12-13T08:38:02;26.70;;;12.65;;
46941;SDS011;32676;52.630;4.896;2022-12-13T08:40:29;26.50;;;11.50;;
46941;SDS011;32676;52.630;4.896;2022-12-13T08:42:57;25.55;;;11.82;;
46941;SDS011;32676;52.630;4.896;2022-12-13T08:45:24;28.83;;;13.17;;
46941;SDS011;32676;52.630;4.896;2022-12-13T08:47:51;29.40;;;13.00;;
46941;SDS011;32676;52.630;4.896;2022-12-13T08:50:18;31.48;;;12.23;;
46941;SDS011;32676;52.630;4.896;2022-12-13T08:52:45;36.72;;;12.85;;
46941;SDS011;32676;52.630;4.896;2022-12-13T08:55:13;30.25;;;13.15;;
46941;SDS011;32676;52.630;4.896;2022-12-13T08:57:40;35.38;;;12.95;;
46941;SDS011;32676;52.630;4.896;2022-12-13T09:00:10;26.08;;;12.20;;
46941;SDS011;32676;52.630;4.896;2022-12-13T09:02:38;27.93;;;11.87;;
46941;SDS011;32676;52.630;4.896;2022-12-13T09:05:05;31.58;;;12.80;;
46941;SDS011;32676;52.630;4.896;2022-12-13T09:07:34;36.70;;;15.88;;
46941;SDS011;32676;52.630;4.896;2022-12-13T09:10:01;43.60;;;14.43;;
46941;SDS011;32676;52.630;4.896;2022-12-13T09:12:28;28.55;;;12.40;;
46941;SDS011;32676;52.630;4.896;2022-12-13T09:14:54;31.27;;;14.75;;
46941;SDS011;32676;52.630;4.896;2022-12-13T09:17:22;24.60;;;11.93;;
46941;SDS011;32676;52.630;4.896;2022-12-13T09:19:49;27.42;;;12.38;;
46941;SDS011;32676;52.630;4.896;2022-12-13T09:22:15;31.25;;;13.05;;
46941;SDS011;32676;52.630;4.896;2022-12-13T09:24:42;29.08;;;12.88;;
46941;SDS011;32676;52.630;4.896;2022-12-13T09:27:08;30.13;;;12.63;;
46941;SDS011;32676;52.630;4.896;2022-12-13T09:29:35;34.00;;;14.67;;
46941;SDS011;32676;52.630;4.896;2022-12-13T09:32:02;39.13;;;14.38;;
46941;SDS011;32676;52.630;4.896;2022-12-13T09:34:30;43.03;;;14.20;;
46941;SDS011;32676;52.630;4.896;2022-12-13T09:36:57;26.90;;;13.18;;
46941;SDS011;32676;52.630;4.896;2022-12-13T09:39:24;35.40;;;12.55;;
46941;SDS011;32676;52.630;4.896;2022-12-13T09:41:51;27.00;;;11.60;;
46941;SDS011;32676;52.630;4.896;2022-12-13T09:44:22;31.45;;;14.52;;
46941;SDS011;32676;52.630;4.896;2022-12-13T09:46:51;39.00;;;12.80;;
46941;SDS011;32676;52.630;4.896;2022-12-13T09:49:21;29.60;;;13.13;;
46941;SDS011;32676;52.630;4.896;2022-12-13T09:51:56;30.27;;;12.77;;
46941;SDS011;32676;52.630;4.896;2022-12-13T09:54:25;29.13;;;12.93;;
46941;SDS011;32676;52.630;4.896;2022-12-13T09:56:53;36.10;;;14.15;;
46941;SDS011;32676;52.630;4.896;2022-12-13T09:59:22;30.92;;;15.23;;
46941;SDS011;32676;52.630;4.896;2022-12-13T10:01:52;31.33;;;14.70;;
46941;SDS011;32676;52.630;4.896;2022-12-13T10:04:20;29.75;;;13.48;;
46941;SDS011;32676;52.630;4.896;2022-12-13T10:06:47;30.00;;;15.80;;
46941;SDS011;32676;52.630;4.896;2022-12-13T10:09:18;26.42;;;13.13;;
46941;SDS011;32676;52.630;4.896;2022-12-13T10:11:46;29.15;;;14.70;;
46941;SDS011;32676;52.630;4.896;2022-12-13T10:14:15;36.78;;;14.10;;
46941;SDS011;32676;52.630;4.896;2022-12-13T10:16:47;36.40;;;14.80;;
46941;SDS011;32676;52.630;4.896;2022-12-13T10:19:18;26.95;;;12.65;;
46941;SDS011;32676;52.630;4.896;2022-12-13T10:21:48;35.20;;;14.75;;
46941;SDS011;32676;52.630;4.896;2022-12-13T10:24:16;44.08;;;14.43;;
46941;SDS011;32676;52.630;4.896;2022-12-13T10:26:46;28.27;;;13.80;;
46941;SDS011;32676;52.630;4.896;2022-12-13T10:29:13;31.30;;;14.38;;
46941;SDS011;32676;52.630;4.896;2022-12-13T10:31:40;29.73;;;14.53;;
46941;SDS011;32676;52.630;4.896;2022-12-13T10:34:17;34.35;;;15.23;;
46941;SDS011;32676;52.630;4.896;2022-12-13T10:36:47;30.33;;;13.98;;
46941;SDS011;32676;52.630;4.896;2022-12-13T10:39:15;31.02;;;14.85;;
46941;SDS011;32676;52.630;4.896;2022-12-13T10:41:45;30.30;;;14.17;;
46941;SDS011;32676;52.630;4.896;2022-12-13T10:44:18;35.17;;;13.73;;
46941;SDS011;32676;52.630;4.896;2022-12-13T10:46:49;36.90;;;13.55;;
46941;SDS011;32676;52.630;4.896;2022-12-13T10:49:19;40.72;;;17.15;;
46941;SDS011;32676;52.630;4.896;2022-12-13T10:51:47;32.45;;;13.45;;
46941;SDS011;32676;52.630;4.896;2022-12-13T10:54:24;30.08;;;13.57;;
46941;SDS011;32676;52.630;4.896;2022-12-13T10:56:54;38.28;;;14.68;;
46941;SDS011;32676;52.630;4.896;2022-12-13T10:59:26;33.83;;;15.20;;
46941;SDS011;32676;52.630;4.896;2022-12-13T11:01:56;30.63;;;14.20;;
46941;SDS011;32676;52.630;4.896;2022-12-13T11:04:23;30.00;;;13.57;;
46941;SDS011;32676;52.630;4.896;2022-12-13T11:06:53;28.45;;;13.73;;
46941;SDS011;32676;52.630;4.896;2022-12-13T11:09:23;36.85;;;16.63;;
46941;SDS011;32676;52.630;4.896;2022-12-13T11:11:52;31.77;;;14.15;;
46941;SDS011;32676;52.630;4.896;2022-12-13T11:14:22;34.45;;;14.65;;
46941;SDS011;32676;52.630;4.896;2022-12-13T11:16:53;34.60;;;14.85;;
46941;SDS011;32676;52.630;4.896;2022-12-13T11:19:23;35.92;;;14.85;;
46941;SDS011;32676;52.630;4.896;2022-12-13T11:21:55;35.78;;;13.38;;
46941;SDS011;32676;52.630;4.896;2022-12-13T11:24:23;30.17;;;15.40;;
46941;SDS011;32676;52.630;4.896;2022-12-13T11:26:56;39.15;;;16.38;;
46941;SDS011;32676;52.630;4.896;2022-12-13T11:29:31;31.55;;;12.45;;
46941;SDS011;32676;52.630;4.896;2022-12-13T11:32:14;38.13;;;14.77;;
46941;SDS011;32676;52.630;4.896;2022-12-13T11:34:51;34.20;;;13.80;;
46941;SDS011;32676;52.630;4.896;2022-12-13T11:37:27;32.35;;;14.75;;
46941;SDS011;32676;52.630;4.896;2022-12-13T11:39:57;33.20;;;14.63;;
46941;SDS011;32676;52.630;4.896;2022-12-13T11:42:30;26.17;;;12.63;;
46941;SDS011;32676;52.630;4.896;2022-12-13T11:45:06;30.42;;;14.00;;
46941;SDS011;32676;52.630;4.896;2022-12-13T11:47:41;28.08;;;13.43;;
46941;SDS011;32676;52.630;4.896;2022-12-13T11:50:13;30.73;;;14.95;;
46941;SDS011;32676;52.630;4.896;2022-12-13T11:52:43;29.98;;;13.07;;
46941;SDS011;32676;52.630;4.896;2022-12-13T11:55:16;29.75;;;13.85;;
46941;SDS011;32676;52.630;4.896;2022-12-13T11:57:48;33.58;;;12.75;;
46941;SDS011;32676;52.630;4.896;2022-12-13T12:00:27;32.60;;;14.32;;
46941;SDS011;32676;52.630;4.896;2022-12-13T12:02:59;29.65;;;14.98;;
46941;SDS011;32676;52.630;4.896;2022-12-13T12:05:36;34.80;;;14.75;;
46941;SDS011;32676;52.630;4.896;2022-12-13T12:08:09;34.63;;;16.65;;
46941;SDS011;32676;52.630;4.896;2022-12-13T12:10:42;35.22;;;15.00;;
46941;SDS011;32676;52.630;4.896;2022-12-13T12:13:12;31.75;;;13.73;;
46941;SDS011;32676;52.630;4.896;2022-12-13T12:15:46;25.23;;;13.82;;
46941;SDS011;32676;52.630;4.896;2022-12-13T12:18:20;32.55;;;14.75;;
46941;SDS011;32676;52.630;4.896;2022-12-13T12:20:51;27.40;;;14.38;;
46941;SDS011;32676;52.630;4.896;2022-12-13T12:23:33;27.70;;;12.80;;
46941;SDS011;32676;52.630;4.896;2022-12-13T12:26:14;32.17;;;13.43;;
46941;SDS011;32676;52.630;4.896;2022-12-13T12:28:48;25.35;;;12.93;;
46941;SDS011;32676;52.630;4.896;2022-12-13T12:31:33;28.55;;;13.35;;
46941;SDS011;32676;52.630;4.896;2022-12-13T12:34:07;26.88;;;12.32;;
46941;SDS011;32676;52.630;4.896;2022-12-13T12:36:47;28.95;;;13.27;;
46941;SDS011;32676;52.630;4.896;2022-12-13T12:39:27;29.85;;;13.00;;
46941;SDS011;32676;52.630;4.896;2022-12-13T12:42:09;29.27;;;13.15;;
46941;SDS011;32676;52.630;4.896;2022-12-13T12:45:11;29.15;;;14.10;;
46941;SDS011;32676;52.630;4.896;2022-12-13T12:47:52;25.20;;;12.70;;
46941;SDS011;32676;52.630;4.896;2022-12-13T12:50:38;30.52;;;12.65;;
46941;SDS011;32676;52.630;4.896;2022-12-13T12:53:13;25.58;;;14.07;;
46941;SDS011;32676;52.630;4.896;2022-12-13T12:55:55;22.08;;;10.18;;
46941;SDS011;32676;52.630;4.896;2022-12-13T12:58:32;30.92;;;13.27;;
46941;SDS011;32676;52.630;4.896;2022-12-13T13:01:13;23.77;;;11.98;;
46941;SDS011;32676;52.630;4.896;2022-12-13T13:03:56;25.77;;;11.48;;
46941;SDS011;32676;52.630;4.896;2022-12-13T13:06:28;32.03;;;13.57;;
46941;SDS011;32676;52.630;4.896;2022-12-13T13:08:59;25.98;;;12.70;;
46941;SDS011;32676;52.630;4.896;2022-12-13T13:11:30;26.52;;;12.90;;
46941;SDS011;32676;52.630;4.896;2022-12-13T13:14:00;27.23;;;12.88;;
46941;SDS011;32676;52.630;4.896;2022-12-13T13:16:47;24.77;;;12.27;;
46941;SDS011;32676;52.630;4.896;2022-12-13T13:22:25;29.27;;;14.43;;
46941;SDS011;32676;52.630;4.896;2022-12-13T13:24:58;30.73;;;15.23;;
46941;SDS011;32676;52.630;4.896;2022-12-13T13:27:39;25.75;;;13.27;;
46941;SDS011;32676;52.630;4.896;2022-12-13T13:30:14;23.90;;;12.60;;
46941;SDS011;32676;52.630;4.896;2022-12-13T13:32:42;32.22;;;14.18;;
46941;SDS011;32676;52.630;4.896;2022-12-13T13:47:13;26.33;;;14.32;;
46941;SDS011;32676;52.630;4.896;2022-12-13T13:49:42;24.63;;;13.45;;
46941;SDS011;32676;52.630;4.896;2022-12-13T13:52:21;33.97;;;14.32;;
46941;SDS011;32676;52.630;4.896;2022-12-13T13:55:05;29.42;;;13.05;;
46941;SDS011;32676;52.630;4.896;2022-12-13T13:58:04;27.90;;;13.63;;
46941;SDS011;32676;52.630;4.896;2022-12-13T14:03:52;28.45;;;15.60;;
46941;SDS011;32676;52.630;4.896;2022-12-13T14:06:39;30.98;;;15.20;;
46941;SDS011;32676;52.630;4.896;2022-12-13T14:09:28;29.50;;;14.32;;
46941;SDS011;32676;52.630;4.896;2022-12-13T14:15:45;34.50;;;17.38;;
46941;SDS011;32676;52.630;4.896;2022-12-13T14:18:47;29.95;;;15.23;;
46941;SDS011;32676;52.630;4.896;2022-12-13T14:21:48;25.75;;;14.13;;
46941;SDS011;32676;52.630;4.896;2022-12-13T14:24:31;29.42;;;14.77;;
46941;SDS011;32676;52.630;4.896;2022-12-13T14:27:08;30.35;;;15.02;;
46941;SDS011;32676;52.630;4.896;2022-12-13T14:29:42;31.48;;;14.43;;
46941;SDS011;32676;52.630;4.896;2022-12-13T14:32:16;34.10;;;15.43;;
46941;SDS011;32676;52.630;4.896;2022-12-13T14:34:45;31.77;;;14.43;;
46941;SDS011;32676;52.630;4.896;2022-12-13T14:37:18;35.03;;;16.95;;
46941;SDS011;32676;52.630;4.896;2022-12-13T14:39:47;30.10;;;13.75;;
46941;SDS011;32676;52.630;4.896;2022-12-13T14:42:22;32.28;;;15.15;;
46941;SDS011;32676;52.630;4.896;2022-12-13T14:44:55;35.53;;;17.70;;
46941;SDS011;32676;52.630;4.896;2022-12-13T14:47:38;34.95;;;17.08;;
46941;SDS011;32676;52.630;4.896;2022-12-13T14:50:05;33.35;;;13.68;;
46941;SDS011;32676;52.630;4.896;2022-12-13T14:52:34;29.67;;;16.05;;
46941;SDS011;32676;52.630;4.896;2022-12-13T14:55:05;32.22;;;14.70;;
46941;SDS011;32676;52.630;4.896;2022-12-13T14:57:33;38.75;;;16.08;;
46941;SDS011;32676;52.630;4.896;2022-12-13T15:02:51;38.33;;;16.58;;
46941;SDS011;32676;52.630;4.896;2022-12-13T15:05:22;32.55;;;16.60;;
46941;SDS011;32676;52.630;4.896;2022-12-13T15:07:50;39.35;;;16.27;;
46941;SDS011;32676;52.630;4.896;2022-12-13T15:10:18;34.77;;;16.17;;
46941;SDS011;32676;52.630;4.896;2022-12-13T15:12:48;39.75;;;16.80;;